< Cyclone 201904 2019 Season Cyclone 201907 >
Cyclone 201905 (Kenanga)
General InformationDetailed Track InformationTrack Information on Google MapsList of All Images || ResourceGoogle EarthGE AnimationAtom FeedGeoJSON
Detalied Best Track Wind (Time Zone = UTC)
Year Month Day Hour Lat. Long. Wind (kt) Gust (kt) Direc. of Major Storm Axis Radius of Major Storm Axis (nm) Radius of Minor Storm Axis (nm) Direc. of Major Gale Axis Radius of Major Gale Axis (nm) Radius of Minor Gale Axis (nm) Image
2018 12 14 06 -7.6 93.1 25 45 symmetric - - symmetric - - Image
2018 12 14 12 -7.8 92.5 30 45 symmetric - - symmetric - - Image
2018 12 14 18 -7.7 91.7 30 45 symmetric - - symmetric - - Image
2018 12 15 00 -7.8 91.7 30 45 symmetric - - symmetric - - Image
2018 12 15 06 -8.3 91.7 30 45 symmetric - - symmetric - - Image
2018 12 15 12 -8.4 91.6 35 50 symmetric - - symmetric - - Image
2018 12 15 18 -8.6 91.4 35 50 symmetric - - symmetric - - Image
2018 12 16 00 -8.9 91.1 40 55 symmetric - - symmetric - - Image
2018 12 16 06 -9.5 90.7 40 55 symmetric - - symmetric - - Image
2018 12 16 12 -10.3 90.1 40 55 symmetric - - symmetric - - Image
2018 12 16 18 -11.0 89.3 45 65 symmetric - - symmetric - - Image
2018 12 17 00 -11.7 88.2 45 65 symmetric - - symmetric - - Image
2018 12 17 06 -12.2 87.4 45 65 symmetric - - symmetric - - Image
2018 12 17 12 -12.6 86.3 50 70 symmetric - - symmetric - - Image
2018 12 17 18 -13.0 85.4 50 70 symmetric - - symmetric - - Image
2018 12 18 00 -13.6 84.8 60 85 symmetric - - symmetric - - Image
2018 12 18 06 -14.2 84.3 65 90 symmetric - - symmetric - - Image
2018 12 18 12 -14.7 83.7 80 110 symmetric - - symmetric - - Image
2018 12 18 18 -15.2 83.1 85 120 symmetric - - symmetric - - Image
2018 12 19 00 -15.7 82.8 90 125 symmetric - - symmetric - - Image
2018 12 19 06 -16.0 82.5 100 140 symmetric - - symmetric - - Image
2018 12 19 12 -16.3 82.3 100 140 symmetric - - symmetric - - Image
2018 12 19 18 -16.5 82.1 95 135 symmetric - - symmetric - - Image
2018 12 20 00 -16.5 81.9 85 120 symmetric - - symmetric - - Image
2018 12 20 06 -16.4 81.6 80 110 symmetric - - symmetric - - Image
2018 12 20 12 -16.4 81.2 80 110 symmetric - - symmetric - - Image
2018 12 20 18 -16.3 80.8 80 110 symmetric - - symmetric - - Image
2018 12 21 00 -16.1 80.4 70 100 symmetric - - symmetric - - Image
2018 12 21 06 -15.9 79.9 65 90 symmetric - - symmetric - - Image
2018 12 21 12 -16.0 79.4 60 85 symmetric - - symmetric - - Image
2018 12 21 18 -16.2 79.1 55 75 symmetric - - symmetric - - Image
2018 12 22 00 -16.6 78.7 50 70 symmetric - - symmetric - - Image
2018 12 22 06 -17.0 78.3 40 55 symmetric - - symmetric - - Image
2018 12 22 12 -17.3 77.8 40 55 symmetric - - symmetric - - Image
2018 12 22 18 -17.4 77.5 35 50 symmetric - - symmetric - - Image
2018 12 23 00 -17.8 77.1 30 45 symmetric - - symmetric - - Image
2018 12 23 06 -18.2 76.7 30 45 symmetric - - symmetric - - Image
2018 12 23 12 -18.6 76.4 30 45 symmetric - - symmetric - - Image
2018 12 23 18 -19.0 76.0 30 45 symmetric - - symmetric - - Image
2018 12 24 00 -19.3 75.5 30 45 symmetric - - symmetric - - Image
2018 12 24 06 -19.6 75.0 30 45 symmetric - - symmetric - - Image
2018 12 24 12 -20.1 74.8 30 45 symmetric - - symmetric - - Image
2018 12 24 18 -20.6 74.8 28 45 symmetric - - symmetric - - Image
2018 12 25 00 -21.1 75.0 27 45 symmetric - - symmetric - - Image
2018 12 25 06 -21.5 75.2 25 45 symmetric - - symmetric - - Image
2018 12 25 12 -22.3 75.3 25 45 symmetric - - symmetric - - Image
2018 12 25 18 -23.2 75.3 23 45 symmetric - - symmetric - - Image
2018 12 26 00 -24.1 75.4 22 45 symmetric - - symmetric - - Image
2018 12 26 06 -24.9 75.9 20 45 symmetric - - symmetric - - Image
< Cyclone 201904 2019 Season Cyclone 201907 >

Help